Time;durP1;ratioP1;P1;durP2;ratioP2;P2;SDS_P1;SDS_P2;PMS_P1;PMS_P2;Temp;Humidity;BMP_temperature;BMP_pressure;BME280_temperature;BME280_humidity;BME280_pressure;Samples;Min_cycle;Max_cycle;Signal;HPM_P1;HPM_P2
2021/04/01 00:00:53;;;;;;;5.60;1.93;;;22.20;99.90;;;;;;5034786;28;20184;-70
2021/04/01 00:03:21;;;;;;;6.63;1.97;;;22.10;99.90;;;;;;5052124;28;20211;-69
2021/04/01 00:05:48;;;;;;;10.37;2.50;;;22.20;99.90;;;;;;5048666;28;20273;-69
2021/04/01 00:08:16;;;;;;;8.60;1.83;;;22.40;99.90;;;;;;5052284;28;20195;-70
2021/04/01 00:10:45;;;;;;;9.53;2.50;;;22.30;99.90;;;;;;5029654;28;20629;-69
2021/04/01 00:13:13;;;;;;;7.63;1.87;;;22.40;99.90;;;;;;5050004;28;20180;-70
2021/04/01 00:15:42;;;;;;;4.67;1.60;;;22.50;99.90;;;;;;5047197;28;20279;-71
2021/04/01 00:18:18;;;;;;;5.43;1.50;;;22.50;99.90;;;;;;5046209;28;20173;-70
2021/04/01 00:20:46;;;;;;;5.90;1.70;;;22.40;99.90;;;;;;5044719;28;20275;-70
2021/04/01 00:23:14;;;;;;;8.90;2.07;;;22.30;99.90;;;;;;5040108;28;20602;-71
2021/04/01 00:25:42;;;;;;;6.53;1.70;;;22.40;99.90;;;;;;5047670;28;20187;-71
2021/04/01 00:28:09;;;;;;;9.63;1.73;;;22.60;99.90;;;;;;5054478;28;20198;-72
2021/04/01 00:30:37;;;;;;;6.30;1.67;;;22.80;99.90;;;;;;5052943;28;20187;-70
2021/04/01 00:33:04;;;;;;;6.97;1.60;;;22.60;99.90;;;;;;5044871;28;20288;-70
2021/04/01 00:35:35;;;;;;;10.43;2.20;;;22.60;99.90;;;;;;5050522;28;20212;-70
2021/04/01 00:38:03;;;;;;;6.70;1.60;;;22.70;99.90;;;;;;5045507;28;20547;-70
2021/04/01 00:40:31;;;;;;;7.57;1.80;;;22.90;99.90;;;;;;5048186;28;20181;-70
2021/04/01 00:42:58;;;;;;;6.57;1.67;;;22.90;99.90;;;;;;5049648;28;20192;-69
2021/04/01 00:45:26;;;;;;;3.97;1.60;;;22.90;99.90;;;;;;5050160;28;20247;-70
2021/04/01 00:47:54;;;;;;;4.00;1.40;;;23.10;99.90;;;;;;5049843;28;20183;-70
2021/04/01 00:50:26;;;;;;;4.83;1.40;;;23.20;99.90;;;;;;5048541;28;20207;-72
2021/04/01 00:52:54;;;;;;;2.10;1.00;;;23.20;99.90;;;;;;5047176;28;20200;-70
2021/04/01 00:55:22;;;;;;;6.13;1.50;;;23.10;99.90;;;;;;5046538;28;20266;-70
2021/04/01 00:57:51;;;;;;;4.17;1.23;;;23.20;99.90;;;;;;5048188;28;20212;-70
2021/04/01 01:00:25;;;;;;;4.47;1.30;;;23.20;99.90;;;;;;5038218;28;20176;-70
2021/04/01 01:02:52;;;;;;;7.90;2.00;;;23.40;99.90;;;;;;5050251;28;20807;-71
2021/04/01 01:05:21;;;;;;;7.10;1.73;;;23.50;99.90;;;;;;5042788;28;20287;-71
2021/04/01 01:07:49;;;;;;;12.67;3.27;;;23.50;99.90;;;;;;5050280;28;20597;-71
2021/04/01 01:10:30;;;;;;;5.40;1.50;;;23.70;99.90;;;;;;5040683;28;20177;-71
2021/04/01 01:13:01;;;;;;;4.20;1.27;;;23.80;99.90;;;;;;5049619;28;20560;-72
2021/04/01 01:15:29;;;;;;;3.47;1.47;;;24.10;99.90;;;;;;5045376;28;20180;-71
2021/04/01 01:17:57;;;;;;;4.40;1.47;;;24.10;99.90;;;;;;5050274;28;20180;-72
2021/04/01 01:20:27;;;;;;;4.93;1.47;;;24.20;99.90;;;;;;5042495;28;20191;-72
2021/04/01 01:22:55;;;;;;;6.57;1.80;;;24.30;99.90;;;;;;5047575;28;20266;-70
2021/04/01 01:25:23;;;;;;;8.73;1.93;;;24.30;99.90;;;;;;5048736;28;20207;-70
2021/04/01 01:27:50;;;;;;;4.83;1.40;;;24.40;99.90;;;;;;5048180;28;20542;-69
2021/04/01 01:30:20;;;;;;;4.67;1.80;;;24.60;99.90;;;;;;5045116;28;20186;-70
2021/04/01 01:32:56;;;;;;;5.80;1.37;;;24.80;99.90;;;;;;5050827;28;20184;-70
2021/04/01 01:35:27;;;;;;;9.50;1.30;;;24.80;99.90;;;;;;5031064;28;20642;-71
2021/04/01 01:37:57;;;;;;;22.80;2.97;;;25.40;99.90;;;;;;5050401;28;20253;-71
2021/04/01 01:40:27;;;;;;;4.83;1.33;;;25.40;99.90;;;;;;5028171;28;20245;-70
2021/04/01 01:42:57;;;;;;;3.73;1.40;;;25.30;99.90;;;;;;5048252;28;20243;-71
2021/04/01 01:45:27;;;;;;;8.07;1.53;;;25.10;99.90;;;;;;5042314;28;20569;-71
2021/04/01 01:47:55;;;;;;;4.63;1.27;;;25.10;99.90;;;;;;5042747;28;20565;-71
2021/04/01 01:50:26;;;;;;;5.23;1.50;;;24.90;99.90;;;;;;5042197;28;20189;-72
2021/04/01 01:52:53;;;;;;;10.53;1.70;;;24.90;99.90;;;;;;5042513;28;20187;-72
2021/04/01 01:55:21;;;;;;;7.93;1.77;;;24.90;99.90;;;;;;5044376;28;20193;-71
2021/04/01 01:57:49;;;;;;;16.00;1.40;;;24.90;99.90;;;;;;5045013;28;20283;-71
2021/04/01 02:00:24;;;;;;;4.97;1.30;;;25.10;99.90;;;;;;5048651;28;20661;-71
2021/04/01 02:02:59;;;;;;;6.53;1.00;;;24.90;99.90;;;;;;5046841;28;20610;-71
2021/04/01 02:05:28;;;;;;;13.70;2.40;;;24.90;99.90;;;;;;5049654;28;20255;-71
2021/04/01 02:07:56;;;;;;;4.80;1.60;;;25.20;99.90;;;;;;5048748;28;20601;-73
2021/04/01 02:10:45;;;;;;;7.33;1.50;;;25.80;99.90;;;;;;5041102;28;20184;-71
2021/04/01 02:13:15;;;;;;;4.60;1.03;;;26.10;99.70;;;;;;5049531;28;20598;-71
2021/04/01 02:15:44;;;;;;;7.53;1.10;;;26.00;99.90;;;;;;5046608;28;20192;-70
2021/04/01 02:18:17;;;;;;;4.97;1.33;;;25.50;99.90;;;;;;5025662;28;20598;-72
2021/04/01 02:20:47;;;;;;;6.57;1.13;;;25.30;99.90;;;;;;5045783;28;20638;-71
2021/04/01 02:23:25;;;;;;;10.27;2.17;;;24.90;99.90;;;;;;5042045;28;20629;-72
2021/04/01 02:25:55;;;;;;;5.97;1.40;;;24.80;99.90;;;;;;5045532;28;20195;-71
2021/04/01 02:28:25;;;;;;;3.70;1.10;;;24.50;99.90;;;;;;5052239;28;20192;-70
2021/04/01 02:30:55;;;;;;;4.87;1.20;;;24.30;99.90;;;;;;5051304;28;20548;-71
2021/04/01 02:33:25;;;;;;;6.10;1.10;;;24.20;99.90;;;;;;5052871;28;20550;-71
2021/04/01 02:35:54;;;;;;;6.63;1.13;;;24.30;99.90;;;;;;5051522;28;20544;-72
2021/04/01 02:38:22;;;;;;;7.27;1.50;;;24.50;99.90;;;;;;5042220;28;20267;-71
2021/04/01 02:40:50;;;;;;;6.00;1.20;;;25.10;99.90;;;;;;5051657;28;20269;-70
2021/04/01 02:43:50;;;;;;;5.70;0.93;;;25.30;99.90;;;;;;5051158;28;20235;-71
2021/04/01 02:46:12;;;;;;;6.67;2.07;;;25.40;99.90;;;;;;5048761;28;20235;-72
2021/04/01 02:48:39;;;;;;;5.23;1.80;;;26.40;99.90;;;;;;5052605;28;20175;-72
2021/04/01 02:51:07;;;;;;;9.63;1.93;;;27.00;99.80;;;;;;5052966;28;20270;-72
2021/04/01 02:53:34;;;;;;;6.10;1.60;;;27.70;99.30;;;;;;5052865;28;20626;-71
2021/04/01 02:56:02;;;;;;;7.43;1.93;;;28.40;97.80;;;;;;5052619;28;20563;-70
2021/04/01 02:58:29;;;;;;;6.37;1.40;;;27.90;97.50;;;;;;5052296;28;20225;-72
2021/04/01 03:00:57;;;;;;;6.97;2.00;;;27.50;98.40;;;;;;5032959;28;20255;-72
2021/04/01 03:03:28;;;;;;;8.17;2.13;;;27.10;99.10;;;;;;5046706;28;20698;-72
2021/04/01 03:05:58;;;;;;;7.63;1.50;;;26.50;99.70;;;;;;5052567;28;20175;-72
2021/04/01 03:08:26;;;;;;;16.57;1.77;;;26.00;99.90;;;;;;5052063;28;20168;-72
2021/04/01 03:10:53;;;;;;;2.17;1.03;;;25.70;99.90;;;;;;5052413;28;20199;-72
2021/04/01 03:13:21;;;;;;;11.33;2.80;;;25.50;99.90;;;;;;5051555;28;20638;-72
2021/04/01 03:15:50;;;;;;;5.60;2.07;;;25.20;99.90;;;;;;5051616;28;20176;-71
2021/04/01 03:18:22;;;;;;;5.67;1.50;;;25.00;99.90;;;;;;5051571;28;20203;-71
2021/04/01 03:20:50;;;;;;;6.70;1.60;;;25.20;99.90;;;;;;5051937;28;20590;-71
2021/04/01 03:23:18;;;;;;;8.03;1.67;;;25.70;99.90;;;;;;5051958;28;20164;-71
2021/04/01 03:25:46;;;;;;;15.07;10.77;;;25.60;99.90;;;;;;5051916;28;20179;-71
2021/04/01 03:28:14;;;;;;;8.47;1.40;;;25.30;99.90;;;;;;5051917;28;20187;-71
2021/04/01 03:30:48;;;;;;;7.37;1.50;;;24.90;99.90;;;;;;5051743;28;20175;-72
2021/04/01 03:33:15;;;;;;;17.50;2.67;;;24.70;99.90;;;;;;5051535;28;20183;-72
2021/04/01 03:35:43;;;;;;;5.47;1.07;;;24.50;99.90;;;;;;5051442;28;20172;-72
2021/04/01 03:38:12;;;;;;;4.37;1.23;;;24.70;99.90;;;;;;5051285;28;20184;-71
2021/04/01 03:40:40;;;;;;;11.87;1.67;;;24.70;99.90;;;;;;5051538;28;20180;-72
2021/04/01 03:43:07;;;;;;;5.83;1.40;;;24.70;99.90;;;;;;5051115;28;20218;-71
2021/04/01 03:45:35;;;;;;;6.43;1.00;;;24.70;99.90;;;;;;5051509;28;20231;-73
2021/04/01 03:48:03;;;;;;;2.87;1.27;;;25.20;99.90;;;;;;5051483;28;20614;-73
2021/04/01 03:50:30;;;;;;;6.60;1.33;;;25.90;99.90;;;;;;5033447;28;20266;-72
2021/04/01 03:52:58;;;;;;;4.50;1.30;;;26.40;99.90;;;;;;5051316;28;20642;-73
2021/04/01 03:55:36;;;;;;;7.20;1.17;;;26.40;99.40;;;;;;5051182;28;20184;-72
2021/04/01 03:58:38;;;;;;;5.57;1.20;;;26.40;99.30;;;;;;5050545;28;20171;-71
2021/04/01 04:11:39;;;;;;;6.33;1.23;;;27.90;97.30;;;;;;5050692;28;20638;-71
2021/04/01 04:16:37;;;;;;;7.03;1.23;;;28.60;95.80;;;;;;5050888;28;20630;-73
2021/04/01 04:19:05;;;;;;;4.47;0.97;;;28.00;95.40;;;;;;5050966;28;20180;-71
2021/04/01 04:21:32;;;;;;;6.53;1.27;;;27.30;96.50;;;;;;5051731;28;20203;-72
2021/04/01 04:24:01;;;;;;;7.13;1.30;;;26.80;97.90;;;;;;5051307;28;20310;-72
2021/04/01 04:26:29;;;;;;;5.30;1.10;;;26.20;98.60;;;;;;5049076;28;20259;-71
2021/04/01 04:28:56;;;;;;;4.90;1.30;;;25.80;99.30;;;;;;5047849;28;20657;-71
2021/04/01 04:31:23;;;;;;;4.60;1.17;;;25.50;99.70;;;;;;5051007;28;20193;-71
2021/04/01 04:33:51;;;;;;;8.00;1.47;;;25.30;99.90;;;;;;5051551;28;20255;-71
2021/04/01 04:36:18;;;;;;;5.87;1.33;;;26.30;99.90;;;;;;5051582;28;20175;-71
2021/04/01 04:38:45;;;;;;;7.23;1.20;;;27.40;98.60;;;;;;5051154;28;20184;-71
2021/04/01 04:41:13;;;;;;;4.33;1.50;;;27.60;97.00;;;;;;5051574;28;20214;-71
2021/04/01 04:43:40;;;;;;;3.37;1.23;;;27.40;96.90;;;;;;5051409;28;20204;-71
2021/04/01 04:46:08;;;;;;;7.37;1.27;;;27.40;96.90;;;;;;5051279;28;20239;-71
2021/04/01 04:48:35;;;;;;;4.97;1.40;;;27.30;97.20;;;;;;5054975;28;20180;-71
2021/04/01 04:51:02;;;;;;;7.13;1.40;;;27.90;96.80;;;;;;5054885;28;20179;-71
2021/04/01 04:53:30;;;;;;;5.40;1.30;;;28.80;95.50;;;;;;5054838;28;20176;-71
2021/04/01 04:56:13;;;;;;;4.30;1.10;;;28.60;95.20;;;;;;5054925;28;20191;-71
2021/04/01 04:58:53;;;;;;;5.23;1.00;;;28.20;95.70;;;;;;5054668;28;20520;-71
2021/04/01 05:09:15;;;;;;;7.17;1.23;;;28.20;95.90;;;;;;5054924;28;20204;-71
2021/04/01 05:11:42;;;;;;;4.80;1.40;;;28.40;95.70;;;;;;5055266;28;20187;-70
2021/04/01 05:14:09;;;;;;;3.77;1.10;;;28.50;95.20;;;;;;5054821;28;20184;-72
2021/04/01 05:16:37;;;;;;;6.23;1.47;;;28.40;94.90;;;;;;5054350;28;20172;-72
2021/04/01 05:19:07;;;;;;;3.13;0.80;;;28.60;95.10;;;;;;5054758;28;20188;-72
2021/04/01 05:24:17;;;;;;;5.70;1.43;;;29.40;94.10;;;;;;5054467;28;20208;-71
2021/04/01 05:27:07;;;;;;;5.20;1.93;;;29.20;94.50;;;;;;5054997;28;20281;-70
2021/04/01 05:29:38;;;;;;;11.03;3.83;;;28.90;93.70;;;;;;5054674;28;20651;-70
2021/04/01 05:32:06;;;;;;;4.63;1.40;;;28.30;94.80;;;;;;5051886;28;20183;-70
2021/04/01 05:34:37;;;;;;;5.80;1.40;;;28.90;94.70;;;;;;5035369;28;20196;-71
2021/04/01 05:37:06;;;;;;;5.25;1.30;;;29.30;93.80;;;;;;5050427;28;20186;-70
2021/04/01 05:39:35;;;;;;;7.90;1.00;;;28.60;94.40;;;;;;5053929;28;20172;-72
2021/04/01 05:42:05;;;;;;;5.47;1.20;;;28.70;94.20;;;;;;5040241;28;20227;-71
2021/04/01 05:47:17;;;;;;;4.03;1.13;;;28.90;94.10;;;;;;5052889;28;20188;-70
2021/04/01 05:50:06;;;;;;;3.67;1.03;;;29.00;93.90;;;;;;5051667;28;20196;-71
2021/04/01 05:53:25;;;;;;;4.97;1.00;;;28.80;93.30;;;;;;5051003;28;20176;-71
2021/04/01 06:07:04;;;;;;;4.13;1.40;;;28.30;93.90;;;;;;5046297;28;20220;-70
2021/04/01 06:09:42;;;;;;;3.10;1.27;;;27.80;94.40;;;;;;5053835;28;20179;-70
2021/04/01 06:12:10;;;;;;;4.27;0.97;;;27.30;95.00;;;;;;5037907;28;20211;-71
2021/04/01 06:14:58;;;;;;;4.53;0.90;;;27.10;95.50;;;;;;5053336;28;20203;-69
2021/04/01 06:17:31;;;;;;;7.23;1.10;;;27.50;95.40;;;;;;5042634;28;20194;-71
2021/04/01 06:20:07;;;;;;;6.80;1.47;;;27.50;94.90;;;;;;5049499;28;20180;-70
2021/04/01 06:22:34;;;;;;;5.40;1.00;;;27.60;95.10;;;;;;5052985;28;20187;-71
2021/04/01 06:25:02;;;;;;;5.30;0.97;;;27.90;95.10;;;;;;5052318;28;20216;-71
2021/04/01 06:27:40;;;;;;;4.90;0.93;;;27.80;94.70;;;;;;5050296;28;20184;-71
2021/04/01 06:30:28;;;;;;;4.87;1.10;;;27.60;95.00;;;;;;5052585;28;20188;-70
2021/04/01 06:33:11;;;;;;;5.43;1.10;;;27.60;94.60;;;;;;5051286;28;20188;-70
2021/04/01 06:35:47;;;;;;;10.23;0.90;;;27.60;94.80;;;;;;5047561;28;20187;-72
2021/04/01 06:41:05;;;;;;;5.07;1.20;;;27.20;95.40;;;;;;5050440;28;20179;-70
2021/04/01 06:43:56;;;;;;;4.10;1.23;;;26.80;95.70;;;;;;5050881;28;20211;-70
2021/04/01 06:46:28;;;;;;;6.17;1.40;;;27.20;95.80;;;;;;5050849;28;20238;-71
2021/04/01 06:49:26;;;;;;;4.23;1.40;;;27.00;95.70;;;;;;5042295;28;20172;-70
2021/04/01 06:52:09;;;;;;;4.33;1.27;;;27.00;95.30;;;;;;5049158;28;20191;-70
2021/04/01 06:54:48;;;;;;;3.73;1.10;;;27.30;95.20;;;;;;5049663;28;20190;-70
2021/04/01 06:57:39;;;;;;;4.60;1.00;;;27.30;95.00;;;;;;5043093;28;20177;-69
2021/04/01 07:00:17;;;;;;;4.83;1.10;;;26.90;95.00;;;;;;5048905;28;20215;-70
2021/04/01 07:03:09;;;;;;;4.93;1.23;;;26.60;95.70;;;;;;5050808;28;20179;-70
2021/04/01 07:11:10;;;;;;;9.90;3.10;;;26.20;96.60;;;;;;5042693;28;20199;-70
2021/04/01 07:13:49;;;;;;;7.37;3.40;;;26.40;96.50;;;;;;5051987;28;20733;-70
2021/04/01 07:16:30;;;;;;;4.20;1.50;;;26.70;96.30;;;;;;5050948;28;20263;-70
2021/04/01 07:30:46;;;;;;;5.13;1.10;;;25.50;97.60;;;;;;5051186;28;20211;-69
2021/04/01 07:44:46;;;;;;;8.33;1.57;;;23.30;99.90;;;;;;5052221;28;20233;-71
2021/04/01 07:46:48;;;;;;;5.23;1.20;;;22.90;99.90;;;;;;5016971;28;20210;-70
2021/04/01 07:49:24;;;;;;;5.60;1.17;;;22.90;99.90;;;;;;5051567;28;20187;-70
2021/04/01 07:52:03;;;;;;;9.67;1.70;;;22.70;99.90;;;;;;5051127;28;20262;-70
2021/04/01 08:00:19;;;;;;;6.63;1.30;;;22.60;99.90;;;;;;5049907;28;20186;-70
2021/04/01 08:05:27;;;;;;;4.33;1.67;;;22.40;99.90;;;;;;5051714;28;20215;-70
2021/04/01 08:08:01;;;;;;;3.83;1.40;;;22.30;99.90;;;;;;5038983;28;20175;-70
2021/04/01 08:10:32;;;;;;;4.70;1.30;;;22.20;99.90;;;;;;5032381;28;20171;-70
2021/04/01 08:13:05;;;;;;;8.80;2.03;;;22.10;99.90;;;;;;5050781;28;20184;-70
2021/04/01 08:15:40;;;;;;;3.83;1.73;;;22.10;99.90;;;;;;5049420;28;20184;-70
2021/04/01 08:20:45;;;;;;;3.37;1.60;;;22.00;99.90;;;;;;5052662;28;20566;-71
2021/04/01 08:23:19;;;;;;;17.97;2.43;;;22.00;99.90;;;;;;5037406;28;20180;-69
2021/04/01 08:25:58;;;;;;;9.73;1.83;;;22.00;99.90;;;;;;5055015;28;20207;-70
2021/04/01 08:36:55;;;;;;;4.10;1.80;;;21.80;99.90;;;;;;5054580;28;20263;-70
2021/04/01 08:39:23;;;;;;;7.33;2.10;;;21.70;99.90;;;;;;5055111;28;20184;-70
2021/04/01 08:42:30;;;;;;;5.00;1.70;;;21.70;99.90;;;;;;5054081;28;20259;-70
2021/04/01 08:44:57;;;;;;;7.80;2.50;;;21.60;99.90;;;;;;5054520;28;20239;-70
2021/04/01 08:47:53;;;;;;;7.80;2.50;;;21.60;99.90;;;;;;5054096;28;20190;-71
2021/04/01 08:50:29;;;;;;;5.57;1.27;;;21.60;99.90;;;;;;5053210;28;20183;-71
2021/04/01 08:53:25;;;;;;;5.17;1.50;;;21.50;99.90;;;;;;5055220;28;20547;-70
2021/04/01 08:56:25;;;;;;;3.43;1.10;;;21.50;99.90;;;;;;5054761;28;20176;-71
2021/04/01 08:59:42;;;;;;;3.83;1.70;;;21.50;99.90;;;;;;5017991;28;20203;-71
2021/04/01 09:02:14;;;;;;;4.97;1.60;;;21.50;99.90;;;;;;4954188;28;20273;-72
2021/04/01 09:04:50;;;;;;;7.33;2.30;;;21.50;99.90;;;;;;4956711;28;20755;-71
2021/04/01 09:08:02;;;;;;;8.87;2.03;;;21.50;99.90;;;;;;5025758;28;20572;-71
2021/04/01 09:10:36;;;;;;;4.70;2.30;;;21.40;99.90;;;;;;5017786;28;20230;-71
2021/04/01 09:15:50;;;;;;;5.40;3.30;;;21.40;99.90;;;;;;5055005;28;20176;-70
2021/04/01 09:18:26;;;;;;;7.20;3.37;;;21.40;99.90;;;;;;5053292;28;20201;-70
2021/04/01 09:20:59;;;;;;;8.43;4.00;;;21.30;99.90;;;;;;5050877;28;20184;-70
2021/04/01 09:23:40;;;;;;;10.73;4.37;;;21.30;99.90;;;;;;5054200;28;20677;-70
2021/04/01 09:26:10;;;;;;;10.03;4.37;;;21.20;99.90;;;;;;5054081;28;20192;-71
2021/04/01 09:28:41;;;;;;;10.80;4.00;;;21.10;99.90;;;;;;5054599;28;20179;-71
2021/04/01 09:31:11;;;;;;;7.73;3.60;;;21.10;99.90;;;;;;5051645;28;20184;-71
2021/04/01 09:33:41;;;;;;;7.23;2.87;;;21.00;99.90;;;;;;5050146;28;20168;-70
2021/04/01 09:36:23;;;;;;;7.77;3.03;;;21.00;99.90;;;;;;5048358;28;20540;-71
2021/04/01 09:39:12;;;;;;;12.40;3.10;;;21.00;99.90;;;;;;5054571;28;20176;-70
2021/04/01 09:41:40;;;;;;;7.57;2.47;;;21.00;99.90;;;;;;5051780;28;20180;-70
2021/04/01 09:44:11;;;;;;;6.20;2.50;;;21.00;99.90;;;;;;5053589;28;20207;-70
2021/04/01 09:46:59;;;;;;;5.90;2.17;;;21.00;99.90;;;;;;5053519;28;20294;-70
2021/04/01 09:49:36;;;;;;;6.23;2.57;;;21.00;99.90;;;;;;5046496;28;20192;-72
2021/04/01 09:52:06;;;;;;;6.23;2.77;;;21.00;99.90;;;;;;5052168;28;20179;-71
2021/04/01 09:54:36;;;;;;;8.90;2.80;;;20.90;99.90;;;;;;5053856;28;20171;-72
2021/04/01 09:57:05;;;;;;;6.87;2.73;;;20.90;99.90;;;;;;5054132;28;20176;-72
2021/04/01 10:02:35;;;;;;;5.70;1.97;;;20.80;99.90;;;;;;5046694;28;20184;-71
2021/04/01 10:05:05;;;;;;;5.50;1.73;;;20.80;99.90;;;;;;5053508;28;20196;-71
2021/04/01 10:07:36;;;;;;;7.07;1.80;;;20.80;99.90;;;;;;5053565;28;20168;-71
2021/04/01 10:10:07;;;;;;;5.17;1.87;;;20.80;99.90;;;;;;5041518;28;20634;-71
2021/04/01 10:12:38;;;;;;;6.17;1.83;;;20.80;99.90;;;;;;5050868;28;20172;-71
2021/04/01 10:15:10;;;;;;;5.77;1.83;;;20.70;99.90;;;;;;5052349;28;20187;-71
2021/04/01 10:17:39;;;;;;;12.53;2.37;;;20.60;99.90;;;;;;5049724;28;20184;-71
2021/04/01 10:20:09;;;;;;;5.50;1.80;;;20.60;99.90;;;;;;5052198;28;20221;-71
2021/04/01 10:22:38;;;;;;;3.93;1.97;;;20.60;99.90;;;;;;5046078;28;20259;-72
2021/04/01 10:25:13;;;;;;;7.87;1.90;;;20.50;99.90;;;;;;5053213;28;20220;-70
2021/04/01 10:27:47;;;;;;;3.93;1.77;;;20.50;99.90;;;;;;5054094;28;20187;-70
2021/04/01 10:30:22;;;;;;;5.37;2.00;;;20.40;99.90;;;;;;5054184;28;20276;-71
2021/04/01 10:32:51;;;;;;;4.53;1.90;;;20.40;99.90;;;;;;5041301;28;20184;-70
2021/04/01 10:35:24;;;;;;;5.07;2.07;;;20.40;99.90;;;;;;5036103;28;20176;-71
2021/04/01 10:37:56;;;;;;;5.83;1.83;;;20.30;99.90;;;;;;5054377;28;20586;-71
2021/04/01 10:40:24;;;;;;;8.17;1.80;;;20.30;99.90;;;;;;5053017;28;20545;-71
2021/04/01 10:43:10;;;;;;;9.90;2.30;;;20.30;99.90;;;;;;5050717;28;20234;-71
2021/04/01 10:45:43;;;;;;;6.73;2.17;;;20.20;99.90;;;;;;5045945;28;20227;-71
2021/04/01 10:48:29;;;;;;;7.47;2.20;;;20.10;99.90;;;;;;5052964;28;20176;-70
2021/04/01 10:51:02;;;;;;;6.40;2.10;;;20.20;99.90;;;;;;5047510;28;20183;-71
2021/04/01 10:53:30;;;;;;;5.03;2.20;;;20.10;99.90;;;;;;5052157;28;20211;-70
2021/04/01 10:56:06;;;;;;;18.03;8.10;;;20.10;99.90;;;;;;5047450;28;20188;-70
2021/04/01 10:58:35;;;;;;;7.50;3.10;;;20.10;99.90;;;;;;5052099;28;20175;-71
2021/04/01 11:01:06;;;;;;;7.00;2.57;;;20.10;99.90;;;;;;5052530;28;20234;-71
2021/04/01 11:03:46;;;;;;;9.00;2.30;;;20.10;99.90;;;;;;5052297;28;20658;-71
2021/04/01 11:06:16;;;;;;;4.97;2.00;;;20.00;99.90;;;;;;5039304;28;20180;-71
2021/04/01 11:08:46;;;;;;;6.27;1.80;;;19.90;99.90;;;;;;5052437;28;20636;-70
2021/04/01 11:11:14;;;;;;;4.87;2.10;;;19.90;99.90;;;;;;5047799;28;20253;-70
2021/04/01 11:13:45;;;;;;;4.30;1.70;;;19.80;99.90;;;;;;5052556;28;20234;-72
2021/04/01 11:16:15;;;;;;;7.63;1.90;;;19.80;99.90;;;;;;5050176;28;20236;-69
2021/04/01 11:18:52;;;;;;;6.97;1.80;;;19.80;99.90;;;;;;5047860;28;20223;-70
2021/04/01 11:21:21;;;;;;;7.60;1.87;;;19.70;99.90;;;;;;5050592;28;20184;-69
2021/04/01 11:23:48;;;;;;;7.53;2.10;;;19.70;99.90;;;;;;5052416;28;20238;-71
2021/04/01 11:26:16;;;;;;;7.63;2.20;;;19.70;99.90;;;;;;5051883;28;20269;-70
2021/04/01 11:28:49;;;;;;;7.37;2.37;;;19.70;99.90;;;;;;5052413;28;20212;-70
2021/04/01 11:31:24;;;;;;;8.63;2.50;;;19.60;99.90;;;;;;5051971;28;20664;-70
2021/04/01 11:33:53;;;;;;;7.77;2.33;;;19.60;99.90;;;;;;5050451;28;20496;-69
2021/04/01 11:36:23;;;;;;;7.60;2.17;;;19.60;99.90;;;;;;5038570;28;20219;-70
2021/04/01 11:38:56;;;;;;;7.90;3.07;;;19.60;99.90;;;;;;5024200;28;20183;-70
2021/04/01 11:41:26;;;;;;;9.97;2.47;;;19.50;99.90;;;;;;5051913;28;20175;-69
2021/04/01 11:43:58;;;;;;;9.40;2.27;;;19.50;99.90;;;;;;5051604;28;20235;-69
2021/04/01 11:46:26;;;;;;;6.13;2.67;;;19.50;99.90;;;;;;5042818;28;20230;-70
2021/04/01 11:48:55;;;;;;;5.20;2.70;;;19.40;99.90;;;;;;5051868;28;20564;-70
2021/04/01 11:51:31;;;;;;;7.80;3.30;;;19.40;99.90;;;;;;5049269;28;20635;-69
2021/04/01 11:54:00;;;;;;;6.53;2.40;;;19.40;99.90;;;;;;5051123;28;20241;-69
2021/04/01 11:56:38;;;;;;;5.30;2.90;;;19.30;99.90;;;;;;5055309;28;20267;-70
2021/04/01 11:59:21;;;;;;;5.00;2.53;;;19.30;99.90;;;;;;5056425;28;20652;-70
2021/04/01 12:02:05;;;;;;;6.40;2.40;;;19.30;99.90;;;;;;5056026;28;20249;-70
2021/04/01 12:04:35;;;;;;;6.80;2.47;;;19.30;99.90;;;;;;5043325;28;20211;-70
2021/04/01 12:07:05;;;;;;;5.90;2.10;;;19.30;99.90;;;;;;5046687;28;20319;-69
2021/04/01 12:09:33;;;;;;;5.60;1.93;;;19.30;99.90;;;;;;5042192;28;20167;-69
2021/04/01 12:12:00;;;;;;;8.50;2.37;;;19.20;99.90;;;;;;5056331;28;20179;-70
2021/04/01 12:14:35;;;;;;;9.73;2.73;;;19.20;99.90;;;;;;5055616;28;20168;-70
2021/04/01 12:17:07;;;;;;;6.23;2.27;;;19.10;99.90;;;;;;5055716;28;20637;-70
2021/04/01 12:19:36;;;;;;;8.33;2.53;;;19.10;99.90;;;;;;5055907;28;20229;-69
2021/04/01 12:22:13;;;;;;;4.00;2.30;;;19.10;99.90;;;;;;5055617;28;20237;-69
2021/04/01 12:24:42;;;;;;;10.10;2.50;;;19.00;99.90;;;;;;5048382;28;20208;-70
2021/04/01 12:27:09;;;;;;;9.80;2.60;;;19.00;99.90;;;;;;5055729;28;20562;-69
2021/04/01 12:29:48;;;;;;;8.53;2.70;;;19.00;99.90;;;;;;5055717;28;20249;-70
2021/04/01 12:32:26;;;;;;;11.00;2.50;;;19.00;99.90;;;;;;5055219;28;20180;-69
2021/04/01 12:35:10;;;;;;;9.17;3.20;;;18.90;99.90;;;;;;5047378;28;20281;-69
2021/04/01 12:37:39;;;;;;;9.60;2.83;;;18.90;99.90;;;;;;5055336;28;20650;-71
2021/04/01 12:40:17;;;;;;;7.70;2.63;;;18.90;99.90;;;;;;5055179;28;20198;-69
2021/04/01 12:42:46;;;;;;;7.23;2.27;;;18.90;99.90;;;;;;5055535;28;20195;-69
2021/04/01 12:45:21;;;;;;;7.50;2.00;;;18.90;99.90;;;;;;5052392;28;20319;-69
2021/04/01 12:47:51;;;;;;;9.13;2.40;;;18.80;99.90;;;;;;5055091;28;20641;-69
2021/04/01 12:50:19;;;;;;;4.97;1.80;;;18.80;99.90;;;;;;5042123;28;20183;-68
2021/04/01 12:52:52;;;;;;;8.90;2.37;;;18.80;99.90;;;;;;5055500;28;20539;-71
2021/04/01 12:55:42;;;;;;;7.20;2.17;;;18.80;99.90;;;;;;5053083;28;20702;-69
2021/04/01 12:58:21;;;;;;;3.53;1.77;;;18.80;99.90;;;;;;5054985;28;20676;-69
2021/04/01 13:00:55;;;;;;;9.43;2.50;;;18.80;99.90;;;;;;5055057;28;20179;-69
2021/04/01 13:03:23;;;;;;;10.30;2.30;;;18.80;99.90;;;;;;5054587;28;20213;-69
2021/04/01 13:05:55;;;;;;;5.33;2.10;;;18.80;99.90;;;;;;5054732;28;20212;-69
2021/04/01 13:08:46;;;;;;;5.63;2.77;;;18.80;99.90;;;;;;5054124;28;20190;-70
2021/04/01 13:11:09;;;;;;;8.80;2.60;;;18.80;99.90;;;;;;5054493;28;20204;-69
2021/04/01 13:13:37;;;;;;;4.90;2.10;;;18.70;99.90;;;;;;5048579;28;20590;-70
2021/04/01 13:16:04;;;;;;;11.43;2.30;;;18.70;99.90;;;;;;5054534;28;20584;-69
2021/04/01 13:18:32;;;;;;;12.13;2.67;;;18.70;99.90;;;;;;5053056;28;20206;-70
2021/04/01 13:21:01;;;;;;;7.40;2.57;;;18.70;99.90;;;;;;5042777;28;20189;-70
2021/04/01 13:23:44;;;;;;;7.27;2.80;;;18.70;99.90;;;;;;5043342;28;20238;-69
2021/04/01 13:26:16;;;;;;;7.63;2.37;;;18.70;99.90;;;;;;5054331;28;20191;-69
2021/04/01 13:28:44;;;;;;;5.87;2.00;;;18.70;99.90;;;;;;5054816;28;20176;-68
2021/04/01 13:31:23;;;;;;;6.70;2.60;;;18.70;99.90;;;;;;5053518;28;20183;-69
2021/04/01 13:33:57;;;;;;;7.20;2.23;;;18.80;99.90;;;;;;5047919;28;20270;-69
2021/04/01 13:36:32;;;;;;;10.27;2.30;;;18.80;99.90;;;;;;5047046;28;20188;-69
2021/04/01 13:39:01;;;;;;;4.40;2.00;;;18.80;99.90;;;;;;5047727;28;20220;-69
2021/04/01 13:41:41;;;;;;;14.73;2.40;;;18.80;99.90;;;;;;5051041;28;20180;-69
2021/04/01 13:44:10;;;;;;;13.43;2.43;;;18.80;99.90;;;;;;5048576;28;20215;-70
2021/04/01 13:46:39;;;;;;;10.17;2.50;;;18.80;99.90;;;;;;5053438;28;20322;-69
2021/04/01 13:49:09;;;;;;;8.13;2.70;;;18.80;99.90;;;;;;5054163;28;20187;-69
2021/04/01 13:51:37;;;;;;;13.63;2.63;;;18.80;99.90;;;;;;5054289;28;20188;-69
2021/04/01 13:56:41;;;;;;;7.07;2.70;;;18.80;99.90;;;;;;5052730;28;20176;-69
2021/04/01 14:09:58;;;;;;;9.87;3.47;;;18.70;99.90;;;;;;5044027;28;20187;-70
2021/04/01 14:12:26;;;;;;;16.33;3.03;;;18.70;99.90;;;;;;5053447;28;20175;-69
2021/04/01 14:14:55;;;;;;;9.27;2.83;;;18.70;99.90;;;;;;5053703;28;20669;-69
2021/04/01 14:17:24;;;;;;;9.43;3.03;;;18.70;99.90;;;;;;5048035;28;20183;-69
2021/04/01 14:19:53;;;;;;;13.60;3.30;;;18.70;99.90;;;;;;5054031;28;20187;-69
2021/04/01 14:22:26;;;;;;;10.63;3.10;;;18.70;99.90;;;;;;5053463;28;20258;-69
2021/04/01 14:25:00;;;;;;;8.30;3.00;;;18.70;99.90;;;;;;5053325;28;20195;-69
2021/04/01 14:27:34;;;;;;;5.33;2.93;;;18.70;99.90;;;;;;5053709;28;20172;-70
2021/04/01 14:30:08;;;;;;;9.83;3.00;;;18.70;99.90;;;;;;5053523;28;20584;-69
2021/04/01 14:32:39;;;;;;;10.30;2.83;;;18.70;99.90;;;;;;5046665;28;20183;-70
2021/04/01 14:35:07;;;;;;;9.87;3.40;;;18.70;99.90;;;;;;5040345;28;20180;-71
2021/04/01 14:37:35;;;;;;;7.60;2.47;;;18.70;99.90;;;;;;5053451;28;20179;-71
2021/04/01 14:40:07;;;;;;;10.97;3.07;;;18.60;99.90;;;;;;5042551;28;20194;-70
2021/04/01 14:42:37;;;;;;;6.97;2.60;;;18.60;99.90;;;;;;5047766;28;20179;-70
2021/04/01 14:45:06;;;;;;;7.73;3.07;;;18.60;99.90;;;;;;5052534;28;20277;-72
2021/04/01 14:47:34;;;;;;;9.33;2.77;;;18.60;99.90;;;;;;5053180;28;20480;-71
2021/04/01 14:50:05;;;;;;;6.23;2.97;;;18.60;99.90;;;;;;5053355;28;20180;-71
2021/04/01 14:52:33;;;;;;;7.33;3.17;;;18.60;99.90;;;;;;5052971;28;20254;-69
2021/04/01 14:55:01;;;;;;;12.33;2.93;;;18.60;99.90;;;;;;5053228;28;20237;-71
2021/04/01 14:57:30;;;;;;;15.87;3.50;;;18.60;99.90;;;;;;5045821;28;20180;-71
2021/04/01 14:59:58;;;;;;;6.90;2.77;;;18.60;99.90;;;;;;5052786;28;20187;-68